createdAt,value
2019-05-25T00:01:27.819Z,14
2019-05-25T00:11:27.657Z,14
2019-05-25T00:21:27.758Z,14
2019-05-25T00:31:28.471Z,14
2019-05-25T00:41:26.523Z,14
2019-05-25T00:51:27.252Z,14
2019-05-25T01:01:28.632Z,14
2019-05-25T01:11:27.897Z,14
2019-05-25T01:21:28.799Z,14
2019-05-25T01:31:26.501Z,14
2019-05-25T01:41:27.292Z,14
2019-05-25T01:51:28.410Z,14
2019-05-25T02:01:27.768Z,14
2019-05-25T02:11:28.751Z,14
2019-05-25T02:21:27.774Z,14
2019-05-25T02:31:27.428Z,14
2019-05-25T02:41:27.221Z,13
2019-05-25T02:51:27.924Z,13
2019-05-25T03:01:27.554Z,14
2019-05-25T03:11:27.589Z,13
2019-05-25T03:21:28.294Z,14
2019-05-25T03:31:27.938Z,13
2019-05-25T03:41:27.785Z,13
2019-05-25T03:51:27.822Z,13
2019-05-25T04:01:29.708Z,13
2019-05-25T04:11:27.787Z,13
2019-05-25T04:21:27.981Z,13
2019-05-25T04:31:27.283Z,13
2019-05-25T04:41:28.938Z,13
2019-05-25T04:51:27.461Z,13
2019-05-25T05:01:28.552Z,13
2019-05-25T05:11:27.187Z,13
2019-05-25T05:21:31.362Z,14
2019-05-25T05:31:27.008Z,14
2019-05-25T05:41:31.666Z,14
2019-05-25T05:51:28.023Z,15
2019-05-25T06:01:27.623Z,15
2019-05-25T06:11:27.485Z,15
2019-05-25T06:21:29.574Z,15
2019-05-25T06:31:27.149Z,15
2019-05-25T06:41:28.931Z,16
2019-05-25T06:51:28.212Z,16
2019-05-25T07:01:27.399Z,16
2019-05-25T07:11:32.760Z,16
2019-05-25T07:21:27.059Z,16
2019-05-25T07:31:27.673Z,17
2019-05-25T07:41:27.411Z,17
2019-05-25T07:51:27.250Z,17
2019-05-25T08:01:27.382Z,17
2019-05-25T08:11:32.595Z,18
2019-05-25T08:21:26.406Z,18
2019-05-25T08:31:29.405Z,18
2019-05-25T08:41:27.397Z,18
2019-05-25T08:51:27.149Z,18
2019-05-25T09:01:28.110Z,19
2019-05-25T09:11:26.864Z,19
2019-05-25T09:21:26.828Z,18
2019-05-25T09:31:26.446Z,19
2019-05-25T09:41:27.726Z,19
2019-05-25T09:51:28.585Z,20
2019-05-25T10:01:27.059Z,20
2019-05-25T10:11:32.483Z,20
2019-05-25T10:21:26.613Z,20
2019-05-25T10:31:26.352Z,20
2019-05-25T10:41:27.195Z,20
2019-05-25T10:51:27.317Z,21
2019-05-25T11:01:27.254Z,20
2019-05-25T11:11:26.365Z,20
2019-05-25T11:21:26.511Z,21
2019-05-25T11:31:32.985Z,20
2019-05-25T11:41:26.261Z,20
2019-05-25T11:51:34.661Z,21
2019-05-25T12:01:27.082Z,21
2019-05-25T12:11:26.771Z,21
2019-05-25T12:21:27.227Z,22
2019-05-25T12:31:27.072Z,22
2019-05-25T12:41:26.888Z,22
2019-05-25T12:51:26.857Z,22
2019-05-25T13:01:28.527Z,22
2019-05-25T13:11:27.746Z,22
2019-05-25T13:21:27.251Z,22
2019-05-25T13:31:26.384Z,22
2019-05-25T13:41:26.451Z,22
2019-05-25T13:51:26.555Z,22
2019-05-25T14:01:29.791Z,22
2019-05-25T14:11:27.206Z,22
2019-05-25T14:21:27.734Z,22
2019-05-25T14:31:26.509Z,22
2019-05-25T14:41:26.743Z,22
2019-05-25T14:51:27.921Z,22
2019-05-25T15:01:27.260Z,22
2019-05-25T15:11:29.964Z,22
2019-05-25T15:21:29.187Z,22
2019-05-25T15:31:26.663Z,22
2019-05-25T15:41:27.770Z,21
2019-05-25T15:51:27.411Z,21
2019-05-25T16:01:26.066Z,22
2019-05-25T16:11:26.850Z,22
2019-05-25T16:21:27.101Z,22
2019-05-25T16:31:28.545Z,24
2019-05-25T16:41:27.024Z,24
2019-05-25T16:51:26.775Z,24
2019-05-25T17:01:27.065Z,25
2019-05-25T17:11:26.806Z,25
2019-05-25T17:21:26.927Z,25
2019-05-25T17:31:27.038Z,23
2019-05-25T17:41:26.749Z,24
2019-05-25T17:51:26.608Z,22
2019-05-25T18:01:26.952Z,22
2019-05-25T18:11:27.234Z,22
2019-05-25T18:21:26.729Z,21
2019-05-25T18:31:27.843Z,21
2019-05-25T18:41:27.675Z,21
2019-05-25T18:51:26.652Z,21
2019-05-25T19:01:28.273Z,20
2019-05-25T19:11:27.130Z,20
2019-05-25T19:21:29.599Z,20
2019-05-25T19:31:27.838Z,19
2019-05-25T19:41:26.410Z,19
2019-05-25T19:51:28.462Z,19
2019-05-25T20:01:27.659Z,20
2019-05-25T20:11:27.240Z,19
2019-05-25T20:21:27.454Z,19
2019-05-25T20:31:27.217Z,19
2019-05-25T20:41:28.012Z,18
2019-05-25T20:51:27.344Z,18
2019-05-25T21:01:26.707Z,18
2019-05-25T21:11:26.557Z,18
2019-05-25T21:21:31.949Z,18
2019-05-25T21:31:27.134Z,18
2019-05-25T21:41:27.698Z,18
2019-05-25T21:51:26.658Z,18
2019-05-25T22:01:27.304Z,18
2019-05-25T22:11:28.680Z,17
2019-05-25T22:21:27.787Z,17
2019-05-25T22:31:27.436Z,17
2019-05-25T22:41:27.473Z,17
2019-05-25T22:51:28.812Z,17
2019-05-25T23:01:36.706Z,18
2019-05-25T23:11:26.786Z,17
2019-05-25T23:21:29.623Z,17
2019-05-25T23:31:27.201Z,17
2019-05-25T23:41:28.062Z,17
2019-05-25T23:51:28.077Z,17
